Time;durP1;ratioP1;P1;durP2;ratioP2;P2;SDS_P1;SDS_P2;PMS_P1;PMS_P2;Temp;Humidity;BMP_temperature;BMP_pressure;BME280_temperature;BME280_humidity;BME280_pressure;Samples;Min_cycle;Max_cycle;Signal;HPM_P1;HPM_P2
2021/12/29 00:00:07;;;;;;;7.80;1.40;;;;;;;;;;10305218;28;20740;-73
2021/12/29 00:05:10;;;;;;;3.28;0.35;;;;;;;;;;10282075;28;20562;-75
2021/12/29 00:10:16;;;;;;;2.43;0.83;;;;;;;;;;10291439;28;20059;-72
2021/12/29 00:15:19;;;;;;;4.55;0.80;;;;;;;;;;10306613;28;20031;-73
2021/12/29 00:20:27;;;;;;;4.28;0.75;;;;;;;;;;10295354;28;20031;-74
2021/12/29 00:25:32;;;;;;;3.47;0.70;;;;;;;;;;10286777;28;20089;-73
2021/12/29 00:30:35;;;;;;;3.35;0.80;;;;;;;;;;10298668;28;20043;-74
2021/12/29 00:35:39;;;;;;;2.47;0.55;;;;;;;;;;10288803;28;20521;-72
2021/12/29 00:40:44;;;;;;;2.97;0.90;;;;;;;;;;10295395;28;20406;-72
2021/12/29 00:45:47;;;;;;;5.82;1.48;;;;;;;;;;10306073;28;20034;-72
2021/12/29 00:50:50;;;;;;;7.77;1.73;;;;;;;;;;10275752;28;20593;-73
2021/12/29 00:55:55;;;;;;;6.40;1.33;;;;;;;;;;10311645;28;20062;-73
2021/12/29 01:01:00;;;;;;;6.22;1.10;;;;;;;;;;10288472;28;20046;-73
2021/12/29 01:06:03;;;;;;;5.57;1.17;;;;;;;;;;10301780;28;20045;-71
2021/12/29 01:11:08;;;;;;;7.97;1.55;;;;;;;;;;10286100;28;20164;-72
2021/12/29 01:16:36;;;;;;;2.00;0.25;;;;;;;;;;10301229;28;20039;-71
2021/12/29 01:21:41;;;;;;;4.97;0.98;;;;;;;;;;10276531;28;20046;-72
2021/12/29 01:26:46;;;;;;;3.85;1.23;;;;;;;;;;10295511;28;20033;-72
2021/12/29 01:31:49;;;;;;;2.03;0.50;;;;;;;;;;10295613;28;20405;-73
2021/12/29 01:36:52;;;;;;;3.22;0.60;;;;;;;;;;10294023;28;20537;-72
2021/12/29 01:41:57;;;;;;;7.13;0.90;;;;;;;;;;10289892;23;20412;-73
2021/12/29 01:47:00;;;;;;;4.82;1.15;;;;;;;;;;10266014;28;20286;-74
2021/12/29 01:52:10;;;;;;;4.45;1.20;;;;;;;;;;10278417;28;20459;-74
2021/12/29 01:57:14;;;;;;;5.20;0.93;;;;;;;;;;10290994;28;20435;-73
2021/12/29 02:02:19;;;;;;;2.13;0.80;;;;;;;;;;10258768;28;20042;-73
2021/12/29 02:07:22;;;;;;;3.53;1.10;;;;;;;;;;10274952;28;20035;-73
2021/12/29 02:12:26;;;;;;;3.15;0.98;;;;;;;;;;10254878;28;20046;-73
2021/12/29 02:17:29;;;;;;;5.93;1.25;;;;;;;;;;10268402;28;20047;-74
2021/12/29 02:22:39;;;;;;;3.55;0.73;;;;;;;;;;10273624;28;20129;-74
2021/12/29 02:27:43;;;;;;;1.40;0.60;;;;;;;;;;10268238;28;20126;-74
2021/12/29 02:32:46;;;;;;;3.90;1.20;;;;;;;;;;10281539;28;20043;-72
2021/12/29 02:37:50;;;;;;;4.93;1.20;;;;;;;;;;10277442;28;20035;-72
2021/12/29 02:42:53;;;;;;;4.75;1.27;;;;;;;;;;10268492;28;20073;-72
2021/12/29 02:47:56;;;;;;;5.45;1.15;;;;;;;;;;10256321;28;20157;-73
2021/12/29 02:53:00;;;;;;;6.45;0.75;;;;;;;;;;10273988;28;20061;-73
2021/12/29 02:58:03;;;;;;;6.63;1.25;;;;;;;;;;10276850;28;20584;-73
2021/12/29 03:03:14;;;;;;;7.35;0.98;;;;;;;;;;10272090;28;20506;-74
2021/12/29 03:08:18;;;;;;;12.55;4.28;;;;;;;;;;10278202;28;20035;-75
2021/12/29 03:13:22;;;;;;;1.42;0.70;;;;;;;;;;10270717;28;20376;-74
2021/12/29 03:18:27;;;;;;;5.38;0.50;;;;;;;;;;10266741;28;20404;-73
2021/12/29 03:23:32;;;;;;;5.72;0.85;;;;;;;;;;10255717;28;20125;-71
2021/12/29 03:28:36;;;;;;;3.92;0.75;;;;;;;;;;10267561;28;20440;-73
2021/12/29 03:33:39;;;;;;;5.33;1.03;;;;;;;;;;10260737;28;20559;-73
2021/12/29 03:38:43;;;;;;;4.30;1.00;;;;;;;;;;10280626;28;20525;-73
2021/12/29 03:43:46;;;;;;;1.98;0.88;;;;;;;;;;10278316;28;20073;-73
2021/12/29 03:48:49;;;;;;;5.43;0.83;;;;;;;;;;10287405;28;20548;-72
2021/12/29 03:53:54;;;;;;;1.75;0.60;;;;;;;;;;10287342;28;20035;-73
2021/12/29 03:58:56;;;;;;;;;;;;;;;;;;10287000;28;20117;-73
2021/12/29 04:03:59;;;;;;;2.65;0.47;;;;;;;;;;10284613;28;19930;-74
2021/12/29 04:09:04;;;;;;;2.67;0.70;;;;;;;;;;10264812;28;20181;-74
2021/12/29 04:14:07;;;;;;;2.72;0.52;;;;;;;;;;10284259;28;20069;-74
2021/12/29 04:19:17;;;;;;;2.88;0.70;;;;;;;;;;10260705;28;20133;-73
2021/12/29 04:24:23;;;;;;;3.22;0.73;;;;;;;;;;10276689;28;20464;-76
2021/12/29 04:29:25;;;;;;;0.38;0.38;;;;;;;;;;10281950;28;20085;-75
2021/12/29 04:34:28;;;;;;;1.27;0.68;;;;;;;;;;10279281;28;20560;-76
2021/12/29 04:39:32;;;;;;;2.38;0.52;;;;;;;;;;10297437;28;20414;-76
2021/12/29 04:44:35;;;;;;;2.58;0.55;;;;;;;;;;10272910;28;20415;-75
2021/12/29 04:49:42;;;;;;;0.57;0.30;;;;;;;;;;10275912;28;20467;-75
2021/12/29 04:54:46;;;;;;;2.25;0.75;;;;;;;;;;10281774;28;20049;-74
2021/12/29 04:59:49;;;;;;;3.30;0.50;;;;;;;;;;10268115;28;20039;-73
2021/12/29 05:04:59;;;;;;;5.22;0.70;;;;;;;;;;10282876;28;20514;-76
2021/12/29 05:10:03;;;;;;;1.20;0.10;;;;;;;;;;10286530;28;20109;-74
2021/12/29 05:15:07;;;;;;;1.90;0.68;;;;;;;;;;10275159;28;20543;-75
2021/12/29 05:20:10;;;;;;;3.80;1.05;;;;;;;;;;10268717;28;20047;-73
2021/12/29 05:25:14;;;;;;;3.67;0.23;;;;;;;;;;10271285;28;20065;-73
2021/12/29 05:30:17;;;;;;;;;;;;;;;;;;10274370;28;20089;-73
2021/12/29 05:35:20;;;;;;;1.25;0.70;;;;;;;;;;10274381;28;20394;-76
2021/12/29 05:40:24;;;;;;;0.52;0.20;;;;;;;;;;10276751;28;20066;-75
2021/12/29 05:45:28;;;;;;;1.95;0.20;;;;;;;;;;10280415;28;20066;-75
2021/12/29 05:50:31;;;;;;;3.97;0.50;;;;;;;;;;10269138;28;20050;-75
2021/12/29 05:55:36;;;;;;;5.93;0.80;;;;;;;;;;10285557;28;20117;-75
2021/12/29 06:00:45;;;;;;;3.70;0.25;;;;;;;;;;10283244;28;20396;-73
2021/12/29 06:05:48;;;;;;;2.63;0.68;;;;;;;;;;10181222;29;20056;-78
2021/12/29 06:10:52;;;;;;;3.42;0.50;;;;;;;;;;10213589;29;20035;-78
2021/12/29 06:15:55;;;;;;;2.28;0.85;;;;;;;;;;10236788;28;20039;-78
2021/12/29 06:20:59;;;;;;;6.30;0.50;;;;;;;;;;10216971;29;20050;-78
2021/12/29 06:26:03;;;;;;;0.73;0.30;;;;;;;;;;10233812;28;20141;-77
2021/12/29 06:31:06;;;;;;;1.80;0.50;;;;;;;;;;10236532;28;20063;-77
2021/12/29 06:36:09;;;;;;;5.30;0.50;;;;;;;;;;10231020;28;20086;-78
2021/12/29 06:41:13;;;;;;;4.00;0.70;;;;;;;;;;10233004;28;20039;-77
2021/12/29 06:46:16;;;;;;;5.90;0.57;;;;;;;;;;10214364;29;20058;-77
2021/12/29 06:51:19;;;;;;;3.30;0.93;;;;;;;;;;10236195;28;20106;-79
2021/12/29 06:56:23;;;;;;;0.35;0.30;;;;;;;;;;10236458;28;20031;-79
2021/12/29 07:01:26;;;;;;;2.03;0.30;;;;;;;;;;10236061;28;20036;-77
2021/12/29 07:06:29;;;;;;;3.50;0.95;;;;;;;;;;10218728;29;20073;-79
2021/12/29 07:11:36;;;;;;;3.72;0.77;;;;;;;;;;10240974;28;20135;-78
2021/12/29 07:16:39;;;;;;;1.27;0.50;;;;;;;;;;10225141;28;20091;-77
2021/12/29 07:21:42;;;;;;;1.27;0.40;;;;;;;;;;10241276;28;20046;-77
2021/12/29 07:26:47;;;;;;;0.38;0.25;;;;;;;;;;10246632;28;20031;-77
2021/12/29 07:31:50;;;;;;;2.28;0.85;;;;;;;;;;10247350;28;20126;-76
2021/12/29 07:36:55;;;;;;;2.25;0.50;;;;;;;;;;10242572;28;20472;-74
2021/12/29 07:41:59;;;;;;;1.05;0.43;;;;;;;;;;10237556;23;20486;-72
2021/12/29 07:47:02;;;;;;;2.83;0.28;;;;;;;;;;10236800;29;20045;-74
2021/12/29 07:52:09;;;;;;;1.98;0.50;;;;;;;;;;10222572;29;20062;-72
2021/12/29 07:57:14;;;;;;;1.33;0.35;;;;;;;;;;10229826;29;20043;-73
2021/12/29 08:02:18;;;;;;;1.58;0.45;;;;;;;;;;10241152;29;20035;-73
2021/12/29 08:07:21;;;;;;;1.08;0.60;;;;;;;;;;10224503;29;20491;-73
2021/12/29 08:12:26;;;;;;;1.33;0.50;;;;;;;;;;10219047;29;20468;-74
2021/12/29 08:17:32;;;;;;;0.60;0.43;;;;;;;;;;10214589;29;20811;-74
2021/12/29 08:22:34;;;;;;;3.65;0.50;;;;;;;;;;10217388;28;20535;-72
2021/12/29 08:27:39;;;;;;;0.10;0.10;;;;;;;;;;10232208;29;20046;-73
2021/12/29 08:32:42;;;;;;;1.45;0.40;;;;;;;;;;10226680;29;20039;-72
2021/12/29 08:37:45;;;;;;;1.55;0.63;;;;;;;;;;10215276;29;20102;-74
2021/12/29 08:42:49;;;;;;;1.75;0.65;;;;;;;;;;10210670;29;20046;-73
2021/12/29 08:47:56;;;;;;;0.77;0.40;;;;;;;;;;10208609;29;20146;-73
2021/12/29 08:52:59;;;;;;;0.03;0.03;;;;;;;;;;10208055;28;20434;-72
2021/12/29 08:58:06;;;;;;;1.80;0.60;;;;;;;;;;10228448;29;20053;-73
2021/12/29 09:03:09;;;;;;;1.83;0.40;;;;;;;;;;10217894;29;20051;-72
2021/12/29 09:08:12;;;;;;;1.77;0.30;;;;;;;;;;10214298;29;20701;-72
2021/12/29 09:13:16;;;;;;;1.67;0.60;;;;;;;;;;10212417;29;20055;-72
2021/12/29 09:18:21;;;;;;;0.88;0.43;;;;;;;;;;10211006;29;22014;-71
2021/12/29 09:23:24;;;;;;;2.40;0.55;;;;;;;;;;10239449;29;20039;-71
2021/12/29 09:28:29;;;;;;;1.73;0.40;;;;;;;;;;10216969;29;20046;-72
2021/12/29 09:33:33;;;;;;;0.73;0.55;;;;;;;;;;10217162;28;20810;-73
2021/12/29 09:38:38;;;;;;;6.25;0.80;;;;;;;;;;10216490;29;20078;-72
2021/12/29 09:43:44;;;;;;;0.50;0.30;;;;;;;;;;10233751;29;20602;-71
2021/12/29 09:48:49;;;;;;;1.40;0.55;;;;;;;;;;10218987;29;20061;-73
2021/12/29 09:53:52;;;;;;;0.45;0.30;;;;;;;;;;10224590;29;20043;-72
2021/12/29 09:58:59;;;;;;;2.10;0.50;;;;;;;;;;10220473;29;20061;-73
2021/12/29 10:04:02;;;;;;;0.17;0.17;;;;;;;;;;10223447;29;20039;-73
2021/12/29 10:09:12;;;;;;;1.33;0.40;;;;;;;;;;10216581;29;20102;-73
2021/12/29 10:14:18;;;;;;;4.40;0.57;;;;;;;;;;10206875;29;20057;-71
2021/12/29 10:19:21;;;;;;;1.40;0.60;;;;;;;;;;10227322;29;20062;-74
2021/12/29 10:24:25;;;;;;;3.35;1.23;;;;;;;;;;10230038;28;20117;-71
2021/12/29 10:29:28;;;;;;;;;;;;;;;;;;10233026;28;20031;-72
2021/12/29 10:34:33;;;;;;;1.15;0.98;;;;;;;;;;10231032;29;19955;-71
2021/12/29 10:39:38;;;;;;;1.80;1.00;;;;;;;;;;10221159;29;20035;-72
2021/12/29 10:44:46;;;;;;;1.58;1.00;;;;;;;;;;10221126;28;20043;-72
2021/12/29 10:49:52;;;;;;;3.40;1.25;;;;;;;;;;10230578;28;20043;-71
2021/12/29 10:54:55;;;;;;;2.45;0.95;;;;;;;;;;10214960;29;20233;-72
2021/12/29 10:59:59;;;;;;;3.35;1.05;;;;;;;;;;10228424;29;20042;-73
2021/12/29 11:05:05;;;;;;;4.57;1.10;;;;;;;;;;10224641;29;20040;-73
2021/12/29 11:10:09;;;;;;;3.60;0.95;;;;;;;;;;10207724;29;20066;-72
2021/12/29 11:15:16;;;;;;;5.40;1.60;;;;;;;;;;10210203;29;20039;-73
2021/12/29 11:20:23;;;;;;;1.35;0.80;;;;;;;;;;10211605;29;20035;-73
2021/12/29 11:25:30;;;;;;;1.98;1.00;;;;;;;;;;10212125;29;20475;-71
2021/12/29 11:30:34;;;;;;;3.97;0.73;;;;;;;;;;10222415;29;20118;-73
2021/12/29 11:35:42;;;;;;;2.95;0.80;;;;;;;;;;10210869;29;20162;-73
2021/12/29 11:40:51;;;;;;;2.88;0.98;;;;;;;;;;10222944;29;20592;-73
2021/12/29 11:45:57;;;;;;;2.17;0.98;;;;;;;;;;10212648;29;20042;-72
2021/12/29 11:51:04;;;;;;;3.00;0.68;;;;;;;;;;10242097;28;20063;-72
2021/12/29 11:56:08;;;;;;;2.38;0.80;;;;;;;;;;10206083;28;20051;-73
2021/12/29 12:01:13;;;;;;;1.05;0.90;;;;;;;;;;10235473;28;20190;-72
2021/12/29 12:06:22;;;;;;;2.08;1.00;;;;;;;;;;10224024;29;20071;-72
2021/12/29 12:11:26;;;;;;;1.60;0.63;;;;;;;;;;10225347;29;20035;-74
2021/12/29 12:16:30;;;;;;;1.02;0.82;;;;;;;;;;10210180;29;20046;-74
2021/12/29 12:21:33;;;;;;;;;;;;;;;;;;10221549;29;20050;-74
2021/12/29 12:26:47;;;;;;;1.33;0.40;;;;;;;;;;10222191;29;19923;-73
2021/12/29 12:32:09;;;;;;;3.72;0.90;;;;;;;;;;10233546;29;20105;-72
2021/12/29 12:37:13;;;;;;;3.85;1.30;;;;;;;;;;10234593;29;20038;-73
2021/12/29 12:42:18;;;;;;;2.47;1.17;;;;;;;;;;10178654;29;1513138;-73
2021/12/29 12:47:22;;;;;;;4.70;1.17;;;;;;;;;;10241393;29;20131;-72
2021/12/29 12:52:26;;;;;;;5.90;1.13;;;;;;;;;;10214697;29;20039;-73
2021/12/29 12:57:33;;;;;;;4.90;1.35;;;;;;;;;;10218534;29;20035;-73
2021/12/29 13:02:37;;;;;;;1.45;0.88;;;;;;;;;;10248399;29;20048;-74
2021/12/29 13:07:42;;;;;;;5.75;1.23;;;;;;;;;;10228506;28;20101;-74
2021/12/29 13:12:56;;;;;;;1.58;0.40;;;;;;;;;;10235865;29;20043;-72
2021/12/29 13:17:59;;;;;;;7.07;1.20;;;;;;;;;;10231185;29;20555;-72
2021/12/29 13:23:03;;;;;;;1.53;0.80;;;;;;;;;;10233453;29;20036;-74
2021/12/29 13:28:12;;;;;;;1.03;0.47;;;;;;;;;;10211795;28;20039;-74
2021/12/29 13:33:16;;;;;;;3.60;0.65;;;;;;;;;;10226469;28;20039;-73
2021/12/29 13:38:19;;;;;;;;;;;;;;;;;;10227752;29;20114;-74
2021/12/29 13:48:42;;;;;;;1.75;0.82;;;;;;;;;;10234277;28;20039;-75
2021/12/29 13:53:47;;;;;;;0.13;0.13;;;;;;;;;;10238406;28;20498;-75
2021/12/29 13:58:58;;;;;;;2.13;0.75;;;;;;;;;;10236843;28;20130;-75
2021/12/29 14:04:02;;;;;;;1.45;0.57;;;;;;;;;;10240974;28;20053;-73
2021/12/29 14:09:08;;;;;;;0.50;0.30;;;;;;;;;;10237766;28;20502;-73
2021/12/29 14:14:14;;;;;;;0.85;0.47;;;;;;;;;;10232674;28;20134;-73
2021/12/29 14:19:21;;;;;;;6.63;0.82;;;;;;;;;;10233184;28;20038;-73
2021/12/29 14:24:26;;;;;;;4.65;1.95;;;;;;;;;;10238716;28;20047;-73
2021/12/29 14:29:33;;;;;;;3.70;0.55;;;;;;;;;;10236513;28;20174;-74
2021/12/29 14:34:41;;;;;;;0.32;0.32;;;;;;;;;;10247637;28;20077;-72
2021/12/29 14:39:44;;;;;;;1.55;0.70;;;;;;;;;;10235906;28;20047;-73
2021/12/29 14:44:57;;;;;;;0.32;0.32;;;;;;;;;;10237544;28;20066;-73
2021/12/29 14:50:01;;;;;;;1.08;0.40;;;;;;;;;;10232785;28;20779;-72
2021/12/29 14:55:05;;;;;;;0.85;0.22;;;;;;;;;;10239438;28;20084;-72
2021/12/29 15:00:12;;;;;;;0.70;0.38;;;;;;;;;;10240144;28;20043;-74
2021/12/29 15:05:18;;;;;;;1.00;0.47;;;;;;;;;;10241017;28;20495;-74
2021/12/29 15:10:29;;;;;;;0.65;0.30;;;;;;;;;;10238196;28;20503;-74
2021/12/29 15:15:36;;;;;;;0.40;0.40;;;;;;;;;;10239133;28;20496;-74
2021/12/29 15:20:40;;;;;;;0.93;0.40;;;;;;;;;;10243887;28;20031;-73
2021/12/29 15:25:47;;;;;;;0.32;0.32;;;;;;;;;;10240145;28;20044;-74
2021/12/29 15:30:53;;;;;;;1.87;0.70;;;;;;;;;;10259839;28;20039;-73
2021/12/29 15:35:57;;;;;;;0.57;0.45;;;;;;;;;;10241695;28;20039;-73
2021/12/29 15:41:03;;;;;;;2.05;0.70;;;;;;;;;;10259684;28;20067;-74
2021/12/29 15:46:09;;;;;;;0.50;0.43;;;;;;;;;;10246326;28;20582;-74
2021/12/29 15:51:26;;;;;;;0.08;0.08;;;;;;;;;;10241342;28;20137;-74
2021/12/29 15:56:29;;;;;;;1.57;0.70;;;;;;;;;;10245797;28;20043;-73
2021/12/29 16:01:34;;;;;;;1.70;0.57;;;;;;;;;;10251187;28;20032;-73
2021/12/29 16:06:37;;;;;;;0.38;0.35;;;;;;;;;;10244911;28;20047;-73
2021/12/29 16:11:40;;;;;;;1.00;0.60;;;;;;;;;;10249138;28;20207;-75
2021/12/29 16:16:45;;;;;;;3.70;0.60;;;;;;;;;;10249217;28;20035;-73
2021/12/29 16:21:48;;;;;;;0.60;0.40;;;;;;;;;;10241788;28;20062;-74
2021/12/29 16:26:52;;;;;;;3.33;0.93;;;;;;;;;;10251398;28;20126;-75
2021/12/29 16:31:57;;;;;;;3.05;0.90;;;;;;;;;;10251325;28;20122;-74
2021/12/29 16:37:00;;;;;;;1.02;0.70;;;;;;;;;;10249236;28;20043;-73
2021/12/29 16:42:03;;;;;;;0.20;0.20;;;;;;;;;;10237456;28;20280;-74
2021/12/29 16:47:09;;;;;;;1.80;0.80;;;;;;;;;;10249125;28;20046;-74
2021/12/29 16:52:11;;;;;;;2.28;0.40;;;;;;;;;;10243831;28;20035;-73
2021/12/29 16:57:15;;;;;;;3.13;0.70;;;;;;;;;;10244833;28;20078;-73
2021/12/29 17:02:20;;;;;;;0.83;0.50;;;;;;;;;;10239507;28;20039;-73
2021/12/29 17:07:23;;;;;;;1.15;0.85;;;;;;;;;;10244462;28;20507;-74
2021/12/29 17:12:26;;;;;;;1.38;0.90;;;;;;;;;;10260392;28;20115;-73
2021/12/29 17:17:31;;;;;;;5.53;2.00;;;;;;;;;;10260724;28;20142;-73
2021/12/29 17:22:36;;;;;;;5.95;2.53;;;;;;;;;;10237983;28;20329;-74
2021/12/29 17:27:39;;;;;;;2.95;1.20;;;;;;;;;;10229449;28;20039;-74
2021/12/29 17:32:43;;;;;;;7.67;1.80;;;;;;;;;;10239759;28;20065;-74
2021/12/29 17:37:48;;;;;;;1.60;1.00;;;;;;;;;;10233991;28;20039;-74
2021/12/29 17:42:51;;;;;;;2.45;1.50;;;;;;;;;;10252404;28;21196;-73
2021/12/29 17:47:55;;;;;;;4.07;1.77;;;;;;;;;;10238011;28;20130;-74
2021/12/29 17:53:00;;;;;;;2.40;1.40;;;;;;;;;;10237344;28;20122;-74
2021/12/29 17:58:04;;;;;;;3.00;2.20;;;;;;;;;;10238505;28;20038;-74
2021/12/29 18:03:08;;;;;;;4.47;1.50;;;;;;;;;;10258098;23;20047;-71
2021/12/29 18:08:11;;;;;;;5.57;2.00;;;;;;;;;;10265256;28;20303;-71
2021/12/29 18:13:15;;;;;;;5.90;1.90;;;;;;;;;;10257333;28;20035;-72
2021/12/29 18:18:19;;;;;;;3.63;1.53;;;;;;;;;;10274235;28;20484;-71
2021/12/29 18:23:22;;;;;;;4.97;2.63;;;;;;;;;;10260660;28;20035;-72
2021/12/29 18:28:26;;;;;;;4.63;2.20;;;;;;;;;;10263826;28;20170;-70
2021/12/29 18:33:30;;;;;;;4.85;1.80;;;;;;;;;;10259360;28;20043;-72
2021/12/29 18:38:34;;;;;;;4.93;2.45;;;;;;;;;;10261875;28;20042;-72
2021/12/29 18:43:37;;;;;;;6.00;2.33;;;;;;;;;;10264469;28;20038;-72
2021/12/29 18:48:42;;;;;;;4.13;2.03;;;;;;;;;;10264268;28;20458;-70
2021/12/29 18:53:46;;;;;;;4.18;1.48;;;;;;;;;;10257933;28;20066;-70
2021/12/29 18:58:49;;;;;;;1.57;1.17;;;;;;;;;;10272176;28;20046;-71
2021/12/29 19:03:53;;;;;;;3.45;2.22;;;;;;;;;;10262438;28;20318;-71
2021/12/29 19:08:57;;;;;;;8.95;2.83;;;;;;;;;;10267067;28;20047;-71
2021/12/29 19:14:01;;;;;;;6.20;2.67;;;;;;;;;;10275692;28;20067;-70
2021/12/29 19:19:05;;;;;;;7.32;2.75;;;;;;;;;;10266534;28;20039;-69
2021/12/29 19:24:09;;;;;;;6.50;2.05;;;;;;;;;;10264084;28;20043;-70
2021/12/29 19:29:12;;;;;;;10.50;3.57;;;;;;;;;;10268865;28;20531;-69
2021/12/29 19:34:17;;;;;;;2.42;1.40;;;;;;;;;;10264885;28;20518;-69
2021/12/29 19:39:20;;;;;;;4.70;2.15;;;;;;;;;;10270232;28;20054;-70
2021/12/29 19:44:23;;;;;;;4.95;1.88;;;;;;;;;;10273489;28;20123;-71
2021/12/29 19:49:28;;;;;;;5.95;3.08;;;;;;;;;;10274052;28;20077;-68
2021/12/29 19:54:31;;;;;;;4.05;2.03;;;;;;;;;;10258709;28;20076;-67
2021/12/29 19:59:34;;;;;;;4.73;2.23;;;;;;;;;;10262354;28;20042;-68
2021/12/29 20:04:39;;;;;;;5.45;2.70;;;;;;;;;;10272429;28;20515;-69
2021/12/29 20:09:42;;;;;;;6.65;1.92;;;;;;;;;;10250053;28;20043;-68
2021/12/29 20:14:46;;;;;;;4.80;2.00;;;;;;;;;;10260009;28;20420;-69
2021/12/29 20:19:51;;;;;;;2.67;1.33;;;;;;;;;;10259121;28;20107;-68
2021/12/29 20:24:54;;;;;;;4.03;1.90;;;;;;;;;;10270010;28;20356;-68
2021/12/29 20:29:57;;;;;;;4.15;1.40;;;;;;;;;;10266398;28;20045;-68
2021/12/29 20:35:02;;;;;;;0.98;0.73;;;;;;;;;;10273806;28;20046;-69
2021/12/29 20:40:07;;;;;;;0.77;0.60;;;;;;;;;;10261344;28;20031;-72
2021/12/29 20:45:11;;;;;;;3.30;1.13;;;;;;;;;;10257729;28;20069;-73
2021/12/29 20:50:16;;;;;;;1.60;1.38;;;;;;;;;;10265573;28;20601;-72
2021/12/29 20:55:20;;;;;;;3.58;1.73;;;;;;;;;;10264265;28;20042;-71
2021/12/29 21:00:24;;;;;;;4.15;1.10;;;;;;;;;;10264486;28;20034;-70
2021/12/29 21:05:28;;;;;;;1.33;0.98;;;;;;;;;;10270173;28;20488;-72
2021/12/29 21:10:32;;;;;;;2.38;1.00;;;;;;;;;;10263396;28;20169;-70
2021/12/29 21:15:35;;;;;;;1.13;1.02;;;;;;;;;;10263609;28;20034;-71
2021/12/29 21:20:40;;;;;;;2.70;0.90;;;;;;;;;;10263226;28;20121;-68
2021/12/29 21:25:44;;;;;;;2.17;0.40;;;;;;;;;;10258756;28;20100;-70
2021/12/29 21:30:47;;;;;;;1.80;1.00;;;;;;;;;;10277583;28;20097;-69
2021/12/29 21:35:57;;;;;;;2.78;0.70;;;;;;;;;;10255430;28;20043;-69
2021/12/29 21:41:01;;;;;;;1.70;0.90;;;;;;;;;;10255585;28;20175;-70
2021/12/29 21:46:04;;;;;;;2.33;1.23;;;;;;;;;;10262319;28;20045;-71
2021/12/29 21:51:09;;;;;;;1.17;0.70;;;;;;;;;;10253593;28;20049;-69
2021/12/29 21:56:12;;;;;;;0.60;0.60;;;;;;;;;;10255021;28;20042;-70
2021/12/29 22:01:15;;;;;;;1.25;0.68;;;;;;;;;;10254890;28;20035;-68
2021/12/29 22:06:20;;;;;;;2.73;0.90;;;;;;;;;;10263189;28;20128;-70
2021/12/29 22:11:23;;;;;;;0.65;0.43;;;;;;;;;;10259936;28;20037;-70
2021/12/29 22:16:26;;;;;;;0.90;0.70;;;;;;;;;;10257963;28;20125;-70
2021/12/29 22:21:31;;;;;;;0.20;0.20;;;;;;;;;;10279438;28;20095;-70
2021/12/29 22:26:34;;;;;;;1.38;0.40;;;;;;;;;;10254121;28;20129;-70
2021/12/29 22:31:37;;;;;;;1.10;0.40;;;;;;;;;;10263903;28;20108;-71
2021/12/29 22:36:42;;;;;;;1.20;0.80;;;;;;;;;;10264529;28;20039;-71
2021/12/29 22:41:45;;;;;;;1.23;0.47;;;;;;;;;;10261328;28;20491;-70
2021/12/29 22:46:49;;;;;;;0.40;0.40;;;;;;;;;;10256980;28;20107;-70
2021/12/29 22:51:54;;;;;;;0.38;0.22;;;;;;;;;;10258036;28;20039;-70
2021/12/29 22:56:57;;;;;;;0.40;0.28;;;;;;;;;;10258500;28;20136;-70
2021/12/29 23:02:00;;;;;;;0.68;0.35;;;;;;;;;;10257205;28;20062;-70
2021/12/29 23:07:05;;;;;;;0.32;0.30;;;;;;;;;;10262504;28;20042;-68
2021/12/29 23:12:10;;;;;;;1.10;0.40;;;;;;;;;;10263384;28;20042;-70
2021/12/29 23:17:16;;;;;;;0.47;0.30;;;;;;;;;;10259796;28;20125;-70
2021/12/29 23:22:20;;;;;;;0.35;0.35;;;;;;;;;;10262157;28;20039;-69
2021/12/29 23:32:58;;;;;;;0.30;0.30;;;;;;;;;;10127670;29;20040;-73
2021/12/29 23:38:03;;;;;;;0.90;0.30;;;;;;;;;;10233207;28;20522;-71
2021/12/29 23:43:06;;;;;;;0.30;0.20;;;;;;;;;;10267798;28;20146;-71
2021/12/29 23:48:10;;;;;;;0.13;0.13;;;;;;;;;;10259508;28;20042;-71
2021/12/29 23:53:15;;;;;;;0.20;0.20;;;;;;;;;;10264266;28;20041;-70
2021/12/29 23:58:19;;;;;;;0.15;0.15;;;;;;;;;;10279432;28;20047;-70
